Dornbirn, Austria
Current Conditions -  °F | °C
As of 11:20 PM on Monday 20 Oct 2014 (Local Time) from LSZR Reporting Station
Rain Showers Rain Showers  
Wind Chill: 63°   Ceiling: 6000
Heat Index: 63°   Visibility: 6mi
Dew Point: 57°   Wind: 3mph
Humidity: 82%   Direction: NA
Pressure: 30.06"   Gusts: NA
Location:  47.42°N, 9.74°E
Report Text: LSZR 202120Z AUTO VRB03KT 9999 -SHRA FEW036 OVC060 17/14 Q1018
Loading
Personal Weather Stations






























Interactive Weather Map
Tropical Storm Tracking
New forecast layout! Learn more

10-Day Weather Forecast

Advertisements
Track Severe Weather on mobile